createdAt,value
2022-08-25T00:02:19.704Z,29.78
2022-08-25T00:05:07.860Z,30.00
2022-08-25T00:07:50.658Z,29.82
2022-08-25T00:10:39.875Z,29.72
2022-08-25T00:13:21.614Z,29.80
2022-08-25T00:16:13.974Z,29.94
2022-08-25T00:19:01.072Z,29.85
2022-08-25T00:21:43.796Z,29.80
2022-08-25T00:24:35.646Z,29.74
2022-08-25T00:27:24.006Z,29.97
2022-08-25T00:30:08.319Z,29.86
2022-08-25T00:32:57.027Z,30.03
2022-08-25T00:35:47.643Z,29.81
2022-08-25T00:38:29.755Z,29.55
2022-08-25T00:41:18.661Z,29.66
2022-08-25T00:44:10.975Z,29.75
2022-08-25T00:46:58.691Z,29.95
2022-08-25T00:49:51.146Z,29.81
2022-08-25T00:53:01.648Z,29.89
2022-08-25T00:55:50.640Z,29.72
2022-08-25T00:58:42.536Z,29.86
2022-08-25T01:01:31.624Z,29.55
2022-08-25T01:04:13.887Z,29.51
2022-08-25T01:07:05.672Z,29.67
2022-08-25T01:10:00.553Z,29.63
2022-08-25T01:12:49.729Z,29.47
2022-08-25T01:15:31.964Z,29.21
2022-08-25T01:18:20.704Z,29.53
2022-08-25T01:21:05.383Z,29.66
2022-08-25T01:23:55.676Z,29.31
2022-08-25T01:26:40.844Z,29.40
2022-08-25T01:29:29.555Z,29.75
2022-08-25T01:32:16.043Z,29.70
2022-08-25T01:35:04.574Z,29.71
2022-08-25T01:37:46.924Z,29.30
2022-08-25T01:40:35.706Z,29.60
2022-08-25T01:43:28.816Z,29.67
2022-08-25T01:46:10.771Z,29.32
2022-08-25T01:49:02.747Z,29.91
2022-08-25T01:52:08.637Z,29.62
2022-08-25T01:54:57.630Z,29.66
2022-08-25T01:57:39.797Z,29.67
2022-08-25T02:00:29.573Z,30.08
2022-08-25T02:03:17.556Z,29.86
2022-08-25T02:06:08.669Z,30.03
2022-08-25T02:08:50.946Z,30.08
2022-08-25T02:11:40.656Z,30.20
2022-08-25T02:14:30.702Z,30.16
2022-08-25T02:17:18.918Z,30.01
2022-08-25T02:20:00.636Z,29.91
2022-08-25T02:22:56.693Z,30.14
2022-08-25T02:25:46.635Z,30.14
2022-08-25T02:28:35.692Z,30.31
2022-08-25T02:31:17.976Z,30.14
2022-08-25T02:34:06.648Z,30.23
2022-08-25T02:36:49.920Z,30.41
2022-08-25T02:39:38.664Z,30.47
2022-08-25T02:42:20.925Z,30.56
2022-08-25T02:45:09.639Z,30.69
2022-08-25T02:47:51.813Z,31.02
2022-08-25T02:50:40.704Z,30.61
2022-08-25T02:53:22.808Z,30.78
2022-08-25T02:56:13.062Z,30.72
2022-08-25T02:58:56.794Z,31.09
2022-08-25T03:01:45.603Z,31.28
2022-08-25T03:04:28.376Z,31.27
2022-08-25T03:07:18.621Z,31.71
2022-08-25T03:10:03.909Z,31.20
2022-08-25T03:12:53.546Z,31.16
2022-08-25T03:15:38.901Z,31.37
2022-08-25T03:18:27.558Z,31.39
2022-08-25T03:21:10.923Z,30.91
2022-08-25T03:23:59.649Z,30.96
2022-08-25T03:26:59.832Z,31.07
2022-08-25T03:29:50.638Z,31.34
2022-08-25T03:32:39.646Z,30.70
2022-08-25T03:35:21.731Z,31.25
2022-08-25T03:38:12.652Z,31.49
2022-08-25T03:40:55.807Z,31.36
2022-08-25T03:43:44.663Z,31.54
2022-08-25T03:46:36.591Z,31.41
2022-08-25T03:49:28.682Z,31.35
2022-08-25T03:52:12.754Z,31.55
2022-08-25T03:55:01.529Z,31.53
2022-08-25T03:57:50.636Z,31.50
2022-08-25T04:00:32.940Z,31.46
2022-08-25T04:03:21.626Z,31.59
2022-08-25T04:06:10.642Z,31.72
2022-08-25T04:09:00.642Z,31.79
2022-08-25T04:11:44.072Z,31.50
2022-08-25T04:14:33.618Z,31.80
2022-08-25T04:17:15.921Z,31.75
2022-08-25T04:20:04.512Z,31.46
2022-08-25T04:22:47.003Z,31.93
2022-08-25T04:25:35.615Z,31.89
2022-08-25T04:28:18.821Z,32.16
2022-08-25T04:31:07.659Z,32.15
2022-08-25T04:33:49.949Z,32.25
2022-08-25T04:36:38.524Z,32.29
2022-08-25T04:39:21.840Z,31.94
2022-08-25T04:42:11.614Z,32.08
2022-08-25T04:45:07.538Z,32.34
2022-08-25T04:47:56.623Z,32.44
2022-08-25T04:50:45.544Z,32.66
2022-08-25T04:53:34.605Z,32.36
2022-08-25T04:56:35.569Z,32.30
2022-08-25T04:59:30.080Z,32.87
2022-08-25T05:02:14.670Z,32.86
2022-08-25T05:04:56.965Z,32.62
2022-08-25T05:07:45.655Z,32.57
2022-08-25T05:10:33.931Z,32.48
2022-08-25T05:13:15.629Z,32.36
2022-08-25T05:16:00.444Z,32.47
2022-08-25T05:18:50.633Z,32.46
2022-08-25T05:21:39.953Z,32.70
2022-08-25T05:24:21.622Z,32.89
2022-08-25T05:27:24.551Z,33.17
2022-08-25T05:30:14.530Z,33.51
2022-08-25T05:32:56.817Z,33.91
2022-08-25T05:35:48.672Z,33.55
2022-08-25T05:38:32.802Z,34.32
2022-08-25T05:41:26.644Z,34.25
2022-08-25T05:44:21.638Z,34.75
2022-08-25T05:47:10.936Z,34.48
2022-08-25T05:49:52.538Z,34.15
2022-08-25T05:52:42.731Z,34.08
2022-08-25T05:55:24.945Z,34.48
2022-08-25T05:58:14.642Z,34.21
2022-08-25T06:01:19.774Z,34.21
2022-08-25T06:04:08.635Z,34.29
2022-08-25T06:07:00.542Z,34.56
2022-08-25T06:09:43.169Z,34.40
2022-08-25T06:12:32.566Z,33.77
2022-08-25T06:15:29.600Z,33.52
2022-08-25T06:18:11.921Z,33.48
2022-08-25T06:21:00.531Z,33.73
2022-08-25T06:23:42.972Z,34.15
2022-08-25T06:26:31.562Z,34.13
2022-08-25T06:29:15.070Z,33.51
2022-08-25T06:32:03.654Z,33.96
2022-08-25T06:34:52.672Z,33.78
2022-08-25T06:37:41.639Z,34.70
2022-08-25T06:40:24.236Z,34.44
2022-08-25T06:43:16.619Z,34.69
2022-08-25T06:46:11.501Z,34.38
2022-08-25T06:49:08.543Z,35.03
2022-08-25T06:51:57.665Z,34.53
2022-08-25T06:54:39.917Z,34.73
2022-08-25T06:57:30.650Z,35.06
2022-08-25T07:00:14.879Z,34.98
2022-08-25T07:03:02.621Z,34.79
2022-08-25T07:05:51.542Z,34.39
2022-08-25T07:08:40.701Z,34.73
2022-08-25T07:11:23.985Z,34.76
2022-08-25T07:14:15.546Z,34.57
2022-08-25T07:16:57.943Z,34.05
2022-08-25T07:19:48.644Z,33.93
2022-08-25T07:22:42.042Z,34.26
2022-08-25T07:25:31.619Z,34.31
2022-08-25T07:28:13.934Z,34.64
2022-08-25T07:31:02.585Z,33.84
2022-08-25T07:34:05.260Z,34.38
2022-08-25T07:36:54.660Z,34.17
2022-08-25T07:39:38.037Z,34.16
2022-08-25T07:42:26.626Z,34.44
2022-08-25T07:45:09.021Z,34.12
2022-08-25T07:47:59.616Z,34.34
2022-08-25T07:50:50.641Z,34.84
2022-08-25T07:53:40.533Z,34.88
2022-08-25T07:56:24.940Z,35.31
2022-08-25T07:59:13.984Z,35.08
2022-08-25T08:01:57.949Z,34.83
2022-08-25T08:04:46.637Z,34.31
2022-08-25T08:07:43.426Z,34.90
2022-08-25T08:10:53.854Z,34.10
2022-08-25T08:13:42.530Z,34.71
2022-08-25T08:16:34.606Z,34.52
2022-08-25T08:19:23.539Z,34.40
2022-08-25T08:22:14.539Z,34.38
2022-08-25T08:24:56.918Z,33.99
2022-08-25T08:27:46.622Z,34.44
2022-08-25T08:30:35.719Z,34.12
2022-08-25T08:33:24.965Z,34.41
2022-08-25T08:36:09.739Z,34.24
2022-08-25T08:38:51.742Z,34.41
2022-08-25T08:42:10.833Z,34.76
2022-08-25T08:44:53.820Z,34.76
2022-08-25T08:48:27.559Z,35.07
2022-08-25T08:51:32.908Z,34.76
2022-08-25T08:54:36.272Z,34.72
2022-08-25T08:57:25.861Z,34.09
2022-08-25T09:00:16.639Z,34.62
2022-08-25T09:03:45.609Z,34.57
2022-08-25T09:06:55.621Z,33.99
2022-08-25T09:09:38.568Z,34.31
2022-08-25T09:12:30.526Z,34.23
2022-08-25T09:16:23.270Z,34.40
2022-08-25T09:19:33.934Z,34.26
2022-08-25T09:22:35.649Z,34.41
2022-08-25T09:25:52.419Z,34.46
2022-08-25T09:28:42.906Z,34.52
2022-08-25T09:31:41.711Z,34.85
2022-08-25T09:34:29.676Z,34.66
2022-08-25T09:37:18.532Z,34.40
2022-08-25T09:40:09.195Z,34.89
2022-08-25T09:43:02.758Z,34.59
2022-08-25T09:45:55.866Z,34.65
2022-08-25T09:48:58.615Z,34.68
2022-08-25T09:51:42.784Z,34.50
2022-08-25T09:54:44.193Z,34.71
2022-08-25T09:57:38.782Z,34.56
2022-08-25T10:00:47.577Z,34.68
2022-08-25T10:03:29.980Z,34.55
2022-08-25T10:06:30.573Z,34.36
2022-08-25T10:09:26.231Z,34.29
2022-08-25T10:12:19.596Z,34.85
2022-08-25T10:15:29.841Z,34.54
2022-08-25T10:18:41.685Z,34.50
2022-08-25T10:21:33.058Z,34.56
2022-08-25T10:24:20.585Z,34.28
2022-08-25T10:27:28.385Z,34.69
2022-08-25T10:30:32.742Z,34.56
2022-08-25T10:33:14.954Z,34.28
2022-08-25T10:36:25.578Z,34.64
2022-08-25T10:39:34.234Z,34.77
2022-08-25T10:42:30.681Z,34.44
2022-08-25T10:45:34.436Z,34.06
2022-08-25T10:48:26.796Z,34.19
2022-08-25T10:51:19.624Z,34.75
2022-08-25T10:54:30.649Z,34.51
2022-08-25T10:57:28.476Z,34.68
2022-08-25T11:00:31.833Z,34.62
2022-08-25T11:03:19.076Z,34.76
2022-08-25T11:06:27.532Z,34.50
2022-08-25T11:09:16.144Z,34.46
2022-08-25T11:12:18.639Z,34.51
2022-08-25T11:15:06.476Z,34.44
2022-08-25T11:18:14.515Z,34.49
2022-08-25T11:21:11.918Z,34.45
2022-08-25T11:24:13.865Z,34.86
2022-08-25T11:27:03.951Z,34.07
2022-08-25T11:30:06.035Z,34.48
2022-08-25T11:32:52.980Z,34.64
2022-08-25T11:35:51.623Z,34.03
2022-08-25T11:38:40.118Z,34.23
2022-08-25T11:42:09.693Z,34.19
2022-08-25T11:45:18.941Z,34.50
2022-08-25T11:48:20.636Z,34.07
2022-08-25T11:51:11.144Z,34.30
2022-08-25T11:54:28.822Z,34.21
2022-08-25T11:57:28.967Z,34.37
2022-08-25T12:00:22.849Z,34.26
2022-08-25T12:03:43.803Z,34.18
2022-08-25T12:06:33.762Z,33.81
2022-08-25T12:09:27.781Z,34.47
2022-08-25T12:12:39.702Z,34.34
2022-08-25T12:15:41.398Z,34.28
2022-08-25T12:18:45.752Z,34.33
2022-08-25T12:21:34.227Z,34.15
2022-08-25T12:24:27.681Z,34.01
2022-08-25T12:27:34.654Z,33.84
2022-08-25T12:30:59.898Z,33.89
2022-08-25T12:34:15.680Z,33.99
2022-08-25T12:37:07.335Z,33.81
2022-08-25T12:40:20.635Z,33.65
2022-08-25T12:43:21.677Z,33.78
2022-08-25T12:46:39.682Z,33.65
2022-08-25T12:49:41.044Z,33.49
2022-08-25T12:52:35.698Z,33.59
2022-08-25T12:55:31.594Z,33.55
2022-08-25T12:58:38.662Z,33.40
2022-08-25T13:02:07.218Z,33.43
2022-08-25T13:05:05.121Z,33.41
2022-08-25T13:08:19.665Z,33.44
2022-08-25T13:11:12.672Z,33.21
2022-08-25T13:14:05.215Z,33.19
2022-08-25T13:16:47.663Z,33.21
2022-08-25T13:19:36.649Z,33.22
2022-08-25T13:22:22.006Z,33.25
2022-08-25T13:25:13.631Z,32.81
2022-08-25T13:28:03.070Z,32.85
2022-08-25T13:30:51.530Z,33.05
2022-08-25T13:33:40.761Z,33.03
2022-08-25T13:36:46.972Z,32.67
2022-08-25T13:39:55.937Z,33.01
2022-08-25T13:42:45.131Z,32.89
2022-08-25T13:45:44.791Z,32.72
2022-08-25T13:48:39.449Z,32.86
2022-08-25T13:51:41.544Z,32.81
2022-08-25T13:54:46.098Z,32.70
2022-08-25T13:57:44.612Z,32.76
2022-08-25T14:00:53.690Z,32.80
2022-08-25T14:03:55.299Z,32.75
2022-08-25T14:06:44.846Z,32.78
2022-08-25T14:09:37.788Z,32.82
2022-08-25T14:12:44.869Z,32.79
2022-08-25T14:15:33.950Z,32.81
2022-08-25T14:18:27.147Z,32.63
2022-08-25T14:21:12.502Z,32.64
2022-08-25T14:24:01.573Z,32.59
2022-08-25T14:26:53.958Z,32.54
2022-08-25T14:29:44.538Z,32.44
2022-08-25T14:32:32.901Z,32.51
2022-08-25T14:35:17.462Z,32.45
2022-08-25T14:37:59.675Z,32.49
2022-08-25T14:40:48.568Z,32.25
2022-08-25T14:43:39.397Z,32.46
2022-08-25T14:46:31.539Z,32.51
2022-08-25T14:49:27.627Z,32.47
2022-08-25T14:52:22.814Z,32.51
2022-08-25T14:55:04.948Z,32.36
2022-08-25T14:57:53.692Z,32.30
2022-08-25T15:00:50.910Z,32.33
2022-08-25T15:03:50.663Z,32.30
2022-08-25T15:06:39.751Z,32.31
2022-08-25T15:09:33.532Z,32.25
2022-08-25T15:12:46.197Z,32.26
2022-08-25T15:15:34.536Z,32.18
2022-08-25T15:18:18.609Z,32.25
2022-08-25T15:21:09.624Z,32.13
2022-08-25T15:23:56.206Z,32.19
2022-08-25T15:26:45.660Z,32.21
2022-08-25T15:29:31.424Z,32.11
2022-08-25T15:32:21.648Z,32.16
2022-08-25T15:35:03.922Z,32.08
2022-08-25T15:37:55.620Z,32.08
2022-08-25T15:40:40.117Z,32.07
2022-08-25T15:43:28.609Z,32.01
2022-08-25T15:46:17.825Z,32.04
2022-08-25T15:49:07.743Z,32.03
2022-08-25T15:51:49.905Z,32.01
2022-08-25T15:54:39.619Z,32.06
2022-08-25T15:57:24.288Z,31.98
2022-08-25T16:00:16.549Z,31.92
2022-08-25T16:03:11.493Z,32.01
2022-08-25T16:06:06.777Z,31.96
2022-08-25T16:08:55.987Z,31.89
2022-08-25T16:11:41.626Z,31.97
2022-08-25T16:14:23.746Z,31.95
2022-08-25T16:17:13.602Z,31.93
2022-08-25T16:20:02.624Z,31.97
2022-08-25T16:22:45.942Z,31.94
2022-08-25T16:25:36.730Z,31.84
2022-08-25T16:28:28.538Z,31.82
2022-08-25T16:31:19.673Z,31.98
2022-08-25T16:34:09.607Z,31.94
2022-08-25T16:37:02.579Z,31.87
2022-08-25T16:39:46.823Z,31.85
2022-08-25T16:42:35.685Z,31.91
2022-08-25T16:45:26.771Z,31.85
2022-08-25T16:48:09.098Z,31.78
2022-08-25T16:50:57.552Z,31.48
2022-08-25T16:53:58.380Z,31.69
2022-08-25T16:56:50.782Z,31.76
2022-08-25T16:59:58.046Z,31.75
2022-08-25T17:02:50.685Z,31.70
2022-08-25T17:06:25.592Z,31.64
2022-08-25T17:09:32.985Z,31.69
2022-08-25T17:12:34.676Z,31.62
2022-08-25T17:15:36.208Z,31.67
2022-08-25T17:18:25.520Z,31.66
2022-08-25T17:21:24.363Z,31.64
2022-08-25T17:24:06.937Z,31.56
2022-08-25T17:26:58.587Z,31.55
2022-08-25T17:29:41.903Z,31.52
2022-08-25T17:32:30.718Z,31.49
2022-08-25T17:35:19.590Z,31.45
2022-08-25T17:38:09.609Z,31.48
2022-08-25T17:40:51.952Z,31.54
2022-08-25T17:43:43.622Z,31.56
2022-08-25T17:46:32.725Z,31.48
2022-08-25T17:49:16.036Z,31.52
2022-08-25T17:52:04.636Z,31.45
2022-08-25T17:54:48.618Z,31.41
2022-08-25T17:57:39.778Z,31.38
2022-08-25T18:00:23.858Z,31.42
2022-08-25T18:03:14.514Z,31.39
2022-08-25T18:06:05.604Z,31.33
2022-08-25T18:09:01.608Z,31.29
2022-08-25T18:11:51.602Z,31.31
2022-08-25T18:14:34.599Z,31.33
2022-08-25T18:17:21.845Z,31.19
2022-08-25T18:20:13.595Z,31.18
2022-08-25T18:22:59.023Z,31.23
2022-08-25T18:25:47.738Z,31.23
2022-08-25T18:28:37.912Z,31.16
2022-08-25T18:31:20.767Z,31.14
2022-08-25T18:34:04.490Z,31.16
2022-08-25T18:36:54.612Z,31.20
2022-08-25T18:39:55.147Z,31.20
2022-08-25T18:42:44.734Z,31.22
2022-08-25T18:45:31.201Z,31.23
2022-08-25T18:48:20.699Z,31.16
2022-08-25T18:51:10.426Z,31.27
2022-08-25T18:53:54.617Z,31.18
2022-08-25T18:56:49.640Z,31.17
2022-08-25T18:59:31.742Z,31.19
2022-08-25T19:02:20.619Z,31.20
2022-08-25T19:05:07.473Z,31.13
2022-08-25T19:07:59.760Z,31.13
2022-08-25T19:10:59.572Z,31.18
2022-08-25T19:13:49.761Z,31.14
2022-08-25T19:16:42.130Z,31.16
2022-08-25T19:19:32.649Z,31.16
2022-08-25T19:22:40.597Z,31.13
2022-08-25T19:25:32.942Z,31.11
2022-08-25T19:28:20.101Z,31.08
2022-08-25T19:31:11.793Z,31.10
2022-08-25T19:33:55.929Z,31.08
2022-08-25T19:36:45.526Z,31.03
2022-08-25T19:39:28.598Z,31.05
2022-08-25T19:42:37.195Z,31.05
2022-08-25T19:45:21.028Z,31.03
2022-08-25T19:48:13.512Z,31.03
2022-08-25T19:50:56.323Z,31.00
2022-08-25T19:53:45.505Z,31.05
2022-08-25T19:56:27.920Z,30.97
2022-08-25T19:59:16.500Z,31.03
2022-08-25T20:02:00.955Z,31.01
2022-08-25T20:04:51.716Z,30.95
2022-08-25T20:07:37.228Z,30.97
2022-08-25T20:10:39.424Z,31.04
2022-08-25T20:13:29.935Z,31.00
2022-08-25T20:16:12.553Z,31.00
2022-08-25T20:19:02.616Z,30.87
2022-08-25T20:21:46.045Z,30.89
2022-08-25T20:24:56.076Z,31.05
2022-08-25T20:27:43.138Z,31.00
2022-08-25T20:30:37.584Z,31.02
2022-08-25T20:33:26.646Z,30.94
2022-08-25T20:36:15.598Z,31.00
2022-08-25T20:38:59.059Z,30.94
2022-08-25T20:41:48.638Z,31.00
2022-08-25T20:44:42.269Z,30.97
2022-08-25T20:47:24.877Z,30.91
2022-08-25T20:50:13.598Z,30.93
2022-08-25T20:53:00.097Z,30.98
2022-08-25T20:55:50.791Z,30.99
2022-08-25T20:58:39.291Z,30.89
2022-08-25T21:01:49.581Z,30.86
2022-08-25T21:04:49.985Z,30.92
2022-08-25T21:07:35.710Z,30.82
2022-08-25T21:10:24.861Z,30.84
2022-08-25T21:13:16.570Z,30.86
2022-08-25T21:16:10.480Z,30.91
2022-08-25T21:18:56.771Z,30.83
2022-08-25T21:21:49.631Z,30.93
2022-08-25T21:24:42.544Z,30.87
2022-08-25T21:27:36.070Z,30.87
2022-08-25T21:30:22.805Z,30.82
2022-08-25T21:33:14.629Z,30.82
2022-08-25T21:35:56.781Z,30.80
2022-08-25T21:38:45.583Z,30.79
2022-08-25T21:41:31.924Z,30.79
2022-08-25T21:44:21.517Z,30.84
2022-08-25T21:47:04.248Z,30.75
2022-08-25T21:49:53.629Z,30.76
2022-08-25T21:52:35.882Z,30.79
2022-08-25T21:55:24.618Z,30.75
2022-08-25T21:58:13.515Z,30.73
2022-08-25T22:01:02.606Z,30.74
2022-08-25T22:03:47.227Z,30.76
2022-08-25T22:06:37.604Z,30.76
2022-08-25T22:09:28.569Z,30.70
2022-08-25T22:12:25.466Z,30.72
2022-08-25T22:15:23.498Z,30.71
2022-08-25T22:18:05.932Z,30.74
2022-08-25T22:20:54.590Z,30.68
2022-08-25T22:23:44.080Z,30.73
2022-08-25T22:26:33.518Z,30.66
2022-08-25T22:29:25.273Z,30.70
2022-08-25T22:32:07.912Z,30.69
2022-08-25T22:34:56.570Z,30.71
2022-08-25T22:37:45.489Z,30.64
2022-08-25T22:40:34.672Z,30.68
2022-08-25T22:43:18.333Z,30.68
2022-08-25T22:46:12.872Z,30.67
2022-08-25T22:48:54.959Z,30.63
2022-08-25T22:51:44.499Z,30.68
2022-08-25T22:54:35.672Z,30.71
2022-08-25T22:57:24.903Z,30.66
2022-08-25T23:00:06.649Z,30.67
2022-08-25T23:02:54.156Z,30.65
2022-08-25T23:05:43.637Z,30.66
2022-08-25T23:08:38.209Z,30.63
2022-08-25T23:11:31.584Z,30.61
2022-08-25T23:14:20.603Z,30.63
2022-08-25T23:17:11.281Z,30.67
2022-08-25T23:19:53.571Z,30.63
2022-08-25T23:22:42.508Z,30.68
2022-08-25T23:25:24.817Z,30.61
2022-08-25T23:28:13.517Z,30.61
2022-08-25T23:30:57.238Z,30.58
2022-08-25T23:33:48.512Z,30.52
2022-08-25T23:36:32.902Z,30.55
2022-08-25T23:39:21.681Z,30.63
2022-08-25T23:42:03.894Z,30.47
2022-08-25T23:44:52.496Z,30.54
2022-08-25T23:47:41.589Z,30.53
2022-08-25T23:50:31.548Z,30.54
2022-08-25T23:53:14.869Z,30.49
2022-08-25T23:56:05.589Z,30.57
2022-08-25T23:58:47.895Z,30.54
